createdAt,value
2022-09-14T00:00:02.807Z,101150.91
2022-09-14T00:02:43.225Z,101149.80
2022-09-14T00:04:57.900Z,101149.68
2022-09-14T00:07:11.679Z,101149.70
2022-09-14T00:09:27.460Z,101153.00
2022-09-14T00:11:42.595Z,101152.44
2022-09-14T00:13:57.212Z,101150.05
2022-09-14T00:16:16.894Z,101151.73
2022-09-14T00:18:30.559Z,101145.04
2022-09-14T00:20:44.162Z,101146.74
2022-09-14T00:22:57.736Z,101148.54
2022-09-14T00:25:12.747Z,101147.61
2022-09-14T00:27:26.335Z,101150.81
2022-09-14T00:29:40.057Z,101150.16
2022-09-14T00:31:53.746Z,101153.50
2022-09-14T00:34:08.305Z,101152.01
2022-09-14T00:36:23.868Z,101154.14
2022-09-14T00:38:37.675Z,101152.86
2022-09-14T00:40:59.773Z,101151.85
2022-09-14T00:43:20.190Z,101157.63
2022-09-14T00:45:34.578Z,101156.36
2022-09-14T00:47:51.547Z,101158.73
2022-09-14T00:50:08.426Z,101157.64
2022-09-14T00:52:25.721Z,101162.66
2022-09-14T00:54:39.921Z,101157.45
2022-09-14T00:56:55.201Z,101157.32
2022-09-14T00:59:16.086Z,101154.63
2022-09-14T01:01:30.284Z,101154.15
2022-09-14T01:03:44.071Z,101157.41
2022-09-14T01:06:08.311Z,101157.17
2022-09-14T01:08:39.670Z,101156.95
2022-09-14T01:11:09.401Z,101156.73
2022-09-14T01:13:34.431Z,101153.77
2022-09-14T01:15:57.721Z,101154.09
2022-09-14T01:18:17.749Z,101152.69
2022-09-14T01:20:37.961Z,101155.20
2022-09-14T01:22:56.741Z,101155.86
2022-09-14T01:25:26.073Z,101157.69
2022-09-14T01:27:43.103Z,101155.67
2022-09-14T01:30:05.197Z,101155.11
2022-09-14T01:32:25.593Z,101147.91
2022-09-14T01:34:44.139Z,101148.42
2022-09-14T01:37:02.911Z,101150.66
2022-09-14T01:39:19.104Z,101150.77
2022-09-14T01:41:35.265Z,101153.02
2022-09-14T01:43:52.988Z,101152.80
2022-09-14T01:46:14.085Z,101152.90
2022-09-14T01:48:34.540Z,101151.60
2022-09-14T01:50:50.314Z,101148.09
2022-09-14T01:53:09.996Z,101150.09
2022-09-14T01:55:29.271Z,101149.80
2022-09-14T01:57:46.640Z,101149.16
2022-09-14T02:00:05.034Z,101146.77
2022-09-14T02:02:22.267Z,101148.59
2022-09-14T02:04:42.938Z,101150.33
2022-09-14T02:06:57.805Z,101147.85
2022-09-14T02:09:13.872Z,101145.36
2022-09-14T02:11:27.746Z,101146.30
2022-09-14T02:13:41.387Z,101146.39
2022-09-14T02:15:55.877Z,101146.10
2022-09-14T02:18:09.850Z,101142.50
2022-09-14T02:20:30.241Z,101140.80
2022-09-14T02:22:43.865Z,101138.52
2022-09-14T02:24:58.161Z,101137.00
2022-09-14T02:27:12.920Z,101137.69
2022-09-14T02:29:26.650Z,101137.00
2022-09-14T02:31:51.447Z,101141.38
2022-09-14T02:34:12.927Z,101143.23
2022-09-14T02:36:36.302Z,101145.17
2022-09-14T02:38:54.937Z,101142.62
2022-09-14T02:41:15.985Z,101145.94
2022-09-14T02:43:39.986Z,101144.06
2022-09-14T02:46:05.318Z,101145.34
2022-09-14T02:48:26.508Z,101140.63
2022-09-14T02:50:44.569Z,101142.23
2022-09-14T02:53:08.482Z,101142.93
2022-09-14T02:55:26.975Z,101145.54
2022-09-14T02:58:07.808Z,101146.70
2022-09-14T03:00:22.198Z,101143.89
2022-09-14T03:02:35.759Z,101145.90
2022-09-14T03:04:49.368Z,101144.80
2022-09-14T03:07:03.110Z,101144.92
2022-09-14T03:09:16.794Z,101147.48
2022-09-14T03:11:30.283Z,101149.38
2022-09-14T03:13:44.197Z,101150.17
2022-09-14T03:15:57.996Z,101151.39
2022-09-14T03:18:14.462Z,101153.54
2022-09-14T03:20:30.446Z,101156.88
2022-09-14T03:22:44.417Z,101158.75
2022-09-14T03:24:58.174Z,101160.88
2022-09-14T03:27:11.966Z,101164.52
2022-09-14T03:29:26.080Z,101165.90
2022-09-14T03:31:40.406Z,101166.49
2022-09-14T03:33:56.290Z,101167.64
2022-09-14T03:36:16.893Z,101162.79
2022-09-14T03:38:31.412Z,101165.27
2022-09-14T03:40:45.334Z,101163.84
2022-09-14T03:42:59.216Z,101163.24
2022-09-14T03:45:14.398Z,101158.85
2022-09-14T03:47:27.958Z,101159.11
2022-09-14T03:49:41.888Z,101158.27
2022-09-14T03:51:59.689Z,101161.32
2022-09-14T03:54:14.091Z,101162.69
2022-09-14T03:56:28.716Z,101166.25
2022-09-14T03:58:43.128Z,101165.20
2022-09-14T04:00:57.146Z,101166.39
2022-09-14T04:03:11.124Z,101167.48
2022-09-14T04:05:25.155Z,101167.66
2022-09-14T04:07:39.345Z,101168.45
2022-09-14T04:09:53.418Z,101168.02
2022-09-14T04:12:08.379Z,101168.52
2022-09-14T04:14:22.192Z,101167.80
2022-09-14T04:16:36.061Z,101164.23
2022-09-14T04:18:50.192Z,101168.22
2022-09-14T04:21:08.492Z,101167.31
2022-09-14T04:23:22.966Z,101167.18
2022-09-14T04:25:36.754Z,101160.33
2022-09-14T04:28:04.156Z,101158.30
2022-09-14T04:30:24.908Z,101155.52
2022-09-14T04:32:38.857Z,101160.86
2022-09-14T04:34:53.013Z,101158.75
2022-09-14T04:37:06.724Z,101159.19
2022-09-14T04:39:20.788Z,101163.69
2022-09-14T04:41:35.212Z,101161.95
2022-09-14T04:43:50.967Z,101158.30
2022-09-14T04:46:08.788Z,101159.65
2022-09-14T04:48:22.805Z,101160.00
2022-09-14T04:50:36.397Z,101157.56
2022-09-14T04:52:49.936Z,101159.77
2022-09-14T04:55:03.817Z,101156.72
2022-09-14T04:57:17.412Z,101156.77
2022-09-14T04:59:31.078Z,101153.90
2022-09-14T05:01:46.769Z,101152.51
2022-09-14T05:04:02.082Z,101149.20
2022-09-14T05:06:17.132Z,101147.48
2022-09-14T05:08:30.880Z,101144.60
2022-09-14T05:10:44.424Z,101142.34
2022-09-14T05:12:57.962Z,101144.73
2022-09-14T05:15:14.341Z,101146.11
2022-09-14T05:17:27.984Z,101151.63
2022-09-14T05:19:41.639Z,101149.88
2022-09-14T05:21:55.631Z,101151.48
2022-09-14T05:24:11.373Z,101148.54
2022-09-14T05:26:25.073Z,101148.62
2022-09-14T05:28:40.152Z,101148.52
2022-09-14T05:30:53.850Z,101147.33
2022-09-14T05:33:07.482Z,101152.89
2022-09-14T05:35:21.374Z,101153.22
2022-09-14T05:37:35.032Z,101151.25
2022-09-14T05:39:48.602Z,101154.45
2022-09-14T05:42:02.284Z,101155.83
2022-09-14T05:44:15.923Z,101154.85
2022-09-14T05:46:29.711Z,101156.58
2022-09-14T05:48:44.414Z,101156.28
2022-09-14T05:51:04.894Z,101153.73
2022-09-14T05:53:18.999Z,101154.50
2022-09-14T05:55:32.916Z,101153.73
2022-09-14T05:57:46.412Z,101154.20
2022-09-14T05:59:59.953Z,101151.18
2022-09-14T06:02:17.546Z,101151.53
2022-09-14T06:04:32.228Z,101152.84
2022-09-14T06:06:56.164Z,101149.08
2022-09-14T06:09:20.106Z,101147.11
2022-09-14T06:11:37.542Z,101147.13
2022-09-14T06:13:51.845Z,101146.40
2022-09-14T06:16:08.134Z,101144.94
2022-09-14T06:18:21.792Z,101146.02
2022-09-14T06:20:35.366Z,101149.67
2022-09-14T06:22:49.147Z,101147.95
2022-09-14T06:25:02.807Z,101149.58
2022-09-14T06:27:16.787Z,101147.44
2022-09-14T06:29:30.570Z,101148.31
2022-09-14T06:31:44.181Z,101146.84
2022-09-14T06:33:59.160Z,101145.11
2022-09-14T06:36:15.251Z,101145.65
2022-09-14T06:38:29.277Z,101145.39
2022-09-14T06:40:43.050Z,101148.85
2022-09-14T06:42:56.646Z,101147.73
2022-09-14T06:45:11.278Z,101147.96
2022-09-14T06:47:25.287Z,101144.80
2022-09-14T06:49:38.960Z,101140.98
2022-09-14T06:51:55.993Z,101146.19
2022-09-14T06:54:10.517Z,101144.20
2022-09-14T06:56:24.968Z,101144.06
2022-09-14T06:58:39.632Z,101144.86
2022-09-14T07:00:53.329Z,101142.45
2022-09-14T07:03:07.818Z,101138.88
2022-09-14T07:05:23.600Z,101139.41
2022-09-14T07:07:37.282Z,101139.81
2022-09-14T07:09:50.827Z,101140.89
2022-09-14T07:12:04.507Z,101138.39
2022-09-14T07:14:21.455Z,101140.39
2022-09-14T07:16:36.783Z,101139.67
2022-09-14T07:18:50.486Z,101140.09
2022-09-14T07:21:08.499Z,101139.39
2022-09-14T07:23:22.280Z,101140.99
2022-09-14T07:25:35.912Z,101141.19
2022-09-14T07:27:49.579Z,101142.56
2022-09-14T07:30:03.287Z,101143.91
2022-09-14T07:32:16.969Z,101144.82
2022-09-14T07:34:31.046Z,101143.35
2022-09-14T07:36:45.352Z,101143.04
2022-09-14T07:38:59.417Z,101143.73
2022-09-14T07:41:13.555Z,101144.23
2022-09-14T07:43:27.073Z,101144.27
2022-09-14T07:45:41.968Z,101144.98
2022-09-14T07:47:55.954Z,101145.30
2022-09-14T07:50:10.114Z,101144.63
2022-09-14T07:52:23.782Z,101145.80
2022-09-14T07:54:37.668Z,101145.64
2022-09-14T07:56:51.871Z,101147.82
2022-09-14T08:01:40.469Z,101148.04
2022-09-14T08:03:54.100Z,101148.16
2022-09-14T08:06:10.035Z,101150.66
2022-09-14T08:08:23.190Z,101144.77
2022-09-14T08:10:38.236Z,101145.86
2022-09-14T08:12:53.548Z,101150.02
2022-09-14T08:15:06.643Z,101146.91
2022-09-14T08:17:19.696Z,101151.69
2022-09-14T08:19:33.075Z,101151.67
2022-09-14T08:21:47.465Z,101154.88
2022-09-14T08:24:00.901Z,101152.59
2022-09-14T08:26:15.210Z,101151.28
2022-09-14T08:28:28.203Z,101150.69
2022-09-14T08:30:42.629Z,101153.23
2022-09-14T08:32:58.951Z,101150.21
2022-09-14T08:35:15.324Z,101150.33
2022-09-14T08:37:28.766Z,101149.34
2022-09-14T08:39:42.154Z,101150.73
2022-09-14T08:42:00.003Z,101148.71
2022-09-14T08:44:21.633Z,101149.60
2022-09-14T08:46:37.684Z,101151.29
2022-09-14T08:48:52.680Z,101151.79
2022-09-14T08:51:06.910Z,101151.70
2022-09-14T08:53:20.242Z,101148.57
2022-09-14T08:55:41.600Z,101147.14
2022-09-14T08:57:59.711Z,101145.64
2022-09-14T09:00:20.774Z,101145.50
2022-09-14T09:03:03.442Z,101144.96
2022-09-14T09:05:38.700Z,101146.02
2022-09-14T09:07:59.526Z,101144.74
2022-09-14T09:10:16.000Z,101145.48
2022-09-14T09:12:33.494Z,101143.88
2022-09-14T09:14:51.930Z,101148.09
2022-09-14T09:17:08.079Z,101145.15
2022-09-14T09:19:28.800Z,101153.25
2022-09-14T09:21:45.738Z,101148.02
2022-09-14T09:24:02.769Z,101149.15
2022-09-14T09:26:26.872Z,101154.58
2022-09-14T09:28:44.271Z,101154.23
2022-09-14T09:30:58.126Z,101152.88
2022-09-14T09:33:16.000Z,101152.04
2022-09-14T09:35:41.292Z,101148.14
2022-09-14T09:38:03.264Z,101152.83
2022-09-14T09:40:24.300Z,101155.64
2022-09-14T09:42:37.534Z,101154.23
2022-09-14T09:45:05.654Z,101155.79
2022-09-14T09:47:19.108Z,101154.20
2022-09-14T09:49:36.684Z,101157.31
2022-09-14T09:51:50.855Z,101158.60
2022-09-14T09:54:24.603Z,101157.78
2022-09-14T09:56:40.709Z,101159.76
2022-09-14T09:58:54.653Z,101162.36
2022-09-14T10:01:12.628Z,101164.31
2022-09-14T10:03:35.407Z,101163.79
2022-09-14T10:05:48.642Z,101164.00
2022-09-14T10:08:06.899Z,101165.16
2022-09-14T10:10:23.178Z,101165.92
2022-09-14T10:12:37.793Z,101167.41
2022-09-14T10:14:54.032Z,101171.28
2022-09-14T10:17:24.788Z,101169.06
2022-09-14T10:19:40.317Z,101168.08
2022-09-14T10:22:19.286Z,101171.27
2022-09-14T10:24:36.375Z,101172.93
2022-09-14T10:26:49.644Z,101172.55
2022-09-14T10:29:30.315Z,101174.20
2022-09-14T10:31:45.032Z,101172.10
2022-09-14T10:34:00.499Z,101174.89
2022-09-14T10:36:24.724Z,101175.98
2022-09-14T10:38:43.581Z,101176.30
2022-09-14T10:41:06.952Z,101173.93
2022-09-14T10:43:30.168Z,101172.28
2022-09-14T10:45:49.477Z,101174.17
2022-09-14T10:48:22.745Z,101173.99
2022-09-14T10:50:48.346Z,101174.85
2022-09-14T10:53:13.685Z,101179.15
2022-09-14T10:55:43.360Z,101174.83
2022-09-14T10:58:03.657Z,101177.23
2022-09-14T11:00:22.964Z,101174.50
2022-09-14T11:02:56.560Z,101174.77
2022-09-14T11:05:18.845Z,101175.80
2022-09-14T11:07:40.419Z,101179.27
2022-09-14T11:10:00.628Z,101174.99
2022-09-14T11:12:22.890Z,101178.55
2022-09-14T11:14:58.963Z,101179.75
2022-09-14T11:17:28.243Z,101177.63
2022-09-14T11:19:55.676Z,101175.15
2022-09-14T11:22:15.784Z,101173.88
2022-09-14T11:24:37.456Z,101173.70
2022-09-14T11:26:56.834Z,101171.33
2022-09-14T11:29:21.932Z,101171.73
2022-09-14T11:31:41.863Z,101171.80
2022-09-14T11:34:00.418Z,101172.94
2022-09-14T11:36:19.260Z,101172.28
2022-09-14T11:38:45.296Z,101171.63
2022-09-14T11:41:05.485Z,101169.88
2022-09-14T11:43:22.195Z,101173.73
2022-09-14T11:45:39.855Z,101172.18
2022-09-14T11:47:58.521Z,101174.80
2022-09-14T11:50:20.621Z,101173.06
2022-09-14T11:52:36.079Z,101175.56
2022-09-14T11:54:50.253Z,101174.48
2022-09-14T11:57:06.158Z,101172.54
2022-09-14T11:59:51.866Z,101171.73
2022-09-14T12:02:55.867Z,101172.16
2022-09-14T12:05:33.335Z,101171.84
2022-09-14T12:08:41.889Z,101170.86
2022-09-14T12:11:27.255Z,101171.01
2022-09-14T12:13:40.983Z,101172.13
2022-09-14T12:16:04.243Z,101173.80
2022-09-14T12:18:28.073Z,101174.05
2022-09-14T12:20:53.891Z,101174.00
2022-09-14T12:23:22.123Z,101170.61
2022-09-14T12:25:35.647Z,101168.81
2022-09-14T12:27:51.413Z,101170.56
2022-09-14T12:30:04.993Z,101169.53
2022-09-14T12:32:42.567Z,101166.80
2022-09-14T12:35:31.511Z,101165.02
2022-09-14T12:37:44.788Z,101168.08
2022-09-14T12:40:38.384Z,101170.20
2022-09-14T12:42:51.586Z,101168.05
2022-09-14T12:45:24.745Z,101172.34
2022-09-14T12:47:56.108Z,101171.64
2022-09-14T12:50:18.973Z,101170.61
2022-09-14T12:52:47.652Z,101175.11
2022-09-14T12:55:17.858Z,101178.57
2022-09-14T12:57:41.119Z,101176.31
2022-09-14T13:00:02.375Z,101179.89
2022-09-14T13:02:44.486Z,101181.49
2022-09-14T13:05:01.644Z,101183.20
2022-09-14T13:07:21.501Z,101181.61
2022-09-14T13:09:36.277Z,101179.96
2022-09-14T13:11:51.082Z,101182.17
2022-09-14T13:14:05.642Z,101182.17
2022-09-14T13:16:28.490Z,101183.98
2022-09-14T13:18:42.772Z,101185.23
2022-09-14T13:20:59.304Z,101189.78
2022-09-14T13:23:25.718Z,101191.01
2022-09-14T13:25:41.753Z,101192.54
2022-09-14T13:27:55.859Z,101193.24
2022-09-14T13:30:21.481Z,101197.45
2022-09-14T13:32:36.639Z,101195.87
2022-09-14T13:34:50.283Z,101196.77
2022-09-14T13:37:04.180Z,101196.18
2022-09-14T13:39:29.433Z,101199.55
2022-09-14T13:41:48.862Z,101200.91
2022-09-14T13:44:03.861Z,101205.66
2022-09-14T13:46:20.411Z,101206.64
2022-09-14T13:48:34.022Z,101210.05
2022-09-14T13:50:50.242Z,101213.02
2022-09-14T13:53:04.371Z,101214.70
2022-09-14T13:55:28.993Z,101212.25
2022-09-14T13:57:42.191Z,101211.40
2022-09-14T14:00:19.359Z,101213.57
2022-09-14T14:02:34.521Z,101212.27
2022-09-14T14:04:54.218Z,101210.52
2022-09-14T14:07:10.539Z,101214.45
2022-09-14T14:09:23.807Z,101215.07
2022-09-14T14:11:40.320Z,101215.85
2022-09-14T14:13:53.561Z,101217.69
2022-09-14T14:16:20.329Z,101221.68
2022-09-14T14:18:45.371Z,101221.04
2022-09-14T14:21:07.655Z,101220.23
2022-09-14T14:23:26.561Z,101221.77
2022-09-14T14:25:45.859Z,101223.10
2022-09-14T14:28:05.287Z,101223.09
2022-09-14T14:30:22.973Z,101226.02
2022-09-14T14:32:37.251Z,101226.92
2022-09-14T14:34:50.651Z,101226.63
2022-09-14T14:37:04.029Z,101232.73
2022-09-14T14:39:17.525Z,101234.89
2022-09-14T14:41:31.033Z,101234.20
2022-09-14T14:43:44.727Z,101231.61
2022-09-14T14:46:00.361Z,101232.67
2022-09-14T14:48:16.502Z,101231.30
2022-09-14T14:50:32.270Z,101233.23
2022-09-14T14:52:45.859Z,101233.22
2022-09-14T14:54:59.041Z,101232.80
2022-09-14T14:57:12.457Z,101234.89
2022-09-14T14:59:33.341Z,101236.55
2022-09-14T15:01:46.694Z,101239.86
2022-09-14T15:04:00.164Z,101241.90
2022-09-14T15:06:23.457Z,101241.22
2022-09-14T15:08:36.671Z,101239.67
2022-09-14T15:10:50.611Z,101242.20
2022-09-14T15:13:19.568Z,101239.14
2022-09-14T15:15:32.952Z,101240.23
2022-09-14T15:17:46.176Z,101238.41
2022-09-14T15:19:59.604Z,101237.64
2022-09-14T15:22:15.397Z,101237.65
2022-09-14T15:24:28.771Z,101235.24
2022-09-14T15:26:42.200Z,101235.35
2022-09-14T15:28:55.559Z,101239.29
2022-09-14T15:31:09.027Z,101238.19
2022-09-14T15:33:22.462Z,101236.39
2022-09-14T15:35:35.678Z,101236.14
2022-09-14T15:37:50.026Z,101236.91
2022-09-14T15:40:03.828Z,101236.14
2022-09-14T15:42:17.153Z,101238.59
2022-09-14T15:44:32.051Z,101239.58
2022-09-14T15:46:46.509Z,101246.17
2022-09-14T15:49:00.981Z,101249.04
2022-09-14T15:51:36.304Z,101248.45
2022-09-14T15:53:49.639Z,101250.02
2022-09-14T15:56:03.040Z,101250.25
2022-09-14T15:58:16.841Z,101254.88
2022-09-14T16:00:30.255Z,101255.13
2022-09-14T16:02:43.427Z,101256.18
2022-09-14T16:04:56.697Z,101255.99
2022-09-14T16:07:11.870Z,101254.84
2022-09-14T16:09:25.296Z,101257.48
2022-09-14T16:11:40.150Z,101257.77
2022-09-14T16:13:54.040Z,101261.30
2022-09-14T16:16:16.557Z,101265.86
2022-09-14T16:18:28.696Z,101263.92
2022-09-14T16:20:43.625Z,101266.34
2022-09-14T16:22:57.307Z,101268.60
2022-09-14T16:25:11.180Z,101269.77
2022-09-14T16:27:24.724Z,101274.75
2022-09-14T16:29:38.117Z,101273.64
2022-09-14T16:31:52.410Z,101277.83
2022-09-14T16:34:08.433Z,101278.27
2022-09-14T16:36:23.268Z,101280.17
2022-09-14T16:38:36.624Z,101282.44
2022-09-14T16:40:49.803Z,101288.19
2022-09-14T16:43:03.228Z,101290.64
2022-09-14T16:45:17.130Z,101293.79
2022-09-14T16:47:30.758Z,101298.43
2022-09-14T16:49:44.095Z,101301.80
2022-09-14T16:51:57.485Z,101301.69
2022-09-14T16:54:11.095Z,101304.23
2022-09-14T16:56:25.899Z,101306.19
2022-09-14T16:58:39.487Z,101303.23
2022-09-14T17:00:52.795Z,101304.83
2022-09-14T17:03:06.197Z,101301.56
2022-09-14T17:05:19.409Z,101301.98
2022-09-14T17:07:32.776Z,101298.33
2022-09-14T17:09:46.612Z,101302.98
2022-09-14T17:12:00.901Z,101302.46
2022-09-14T17:14:17.251Z,101304.99
2022-09-14T17:16:31.355Z,101304.20
2022-09-14T17:18:46.132Z,101303.33
2022-09-14T17:21:03.965Z,101305.50
2022-09-14T17:23:17.150Z,101307.90
2022-09-14T17:25:30.487Z,101306.38
2022-09-14T17:27:43.804Z,101310.89
2022-09-14T17:29:57.203Z,101312.67
2022-09-14T17:32:14.763Z,101313.11
2022-09-14T17:34:28.413Z,101315.26
2022-09-14T17:36:41.820Z,101318.17
2022-09-14T17:38:55.498Z,101316.86
2022-09-14T17:41:10.631Z,101318.09
2022-09-14T17:43:24.681Z,101319.20
2022-09-14T17:45:54.076Z,101323.85
2022-09-14T17:48:07.487Z,101321.05
2022-09-14T17:50:22.226Z,101324.27
2022-09-14T17:52:35.420Z,101322.52
2022-09-14T17:54:48.651Z,101323.70
2022-09-14T17:57:01.814Z,101321.30
2022-09-14T17:59:18.741Z,101323.69
2022-09-14T18:01:32.088Z,101320.50
2022-09-14T18:03:46.820Z,101322.42
2022-09-14T18:06:02.543Z,101319.31
2022-09-14T18:08:15.814Z,101315.38
2022-09-14T18:10:29.161Z,101319.59
2022-09-14T18:12:42.329Z,101317.05
2022-09-14T18:14:55.638Z,101318.07
2022-09-14T18:17:09.025Z,101319.09
2022-09-14T18:19:22.694Z,101320.16
2022-09-14T18:21:35.889Z,101320.42
2022-09-14T18:23:51.264Z,101322.12
2022-09-14T18:26:07.986Z,101322.35
2022-09-14T18:28:21.219Z,101327.14
2022-09-14T18:30:34.387Z,101330.03
2022-09-14T18:32:48.248Z,101326.43
2022-09-14T18:35:02.231Z,101327.85
2022-09-14T18:37:15.552Z,101329.76
2022-09-14T18:39:28.755Z,101324.59
2022-09-14T18:41:42.283Z,101329.04
2022-09-14T18:43:57.779Z,101330.85
2022-09-14T18:46:13.696Z,101324.64
2022-09-14T18:48:26.848Z,101329.19
2022-09-14T18:50:40.941Z,101324.47
2022-09-14T18:52:54.335Z,101328.98
2022-09-14T18:55:07.782Z,101327.76
2022-09-14T18:57:21.155Z,101332.45
2022-09-14T18:59:34.492Z,101333.00
2022-09-14T19:01:48.282Z,101336.85
2022-09-14T19:04:01.597Z,101338.52
2022-09-14T19:06:18.071Z,101336.98
2022-09-14T19:08:31.722Z,101339.51
2022-09-14T19:10:45.207Z,101335.98
2022-09-14T19:12:58.590Z,101338.64
2022-09-14T19:15:13.401Z,101338.34
2022-09-14T19:17:26.722Z,101342.42
2022-09-14T19:19:39.872Z,101344.91
2022-09-14T19:21:53.108Z,101341.64
2022-09-14T19:24:07.399Z,101343.11
2022-09-14T19:26:22.085Z,101343.40
2022-09-14T19:28:35.216Z,101343.73
2022-09-14T19:30:50.005Z,101344.02
2022-09-14T19:33:03.577Z,101348.31
2022-09-14T19:35:17.203Z,101351.88
2022-09-14T19:37:32.830Z,101346.41
2022-09-14T19:39:46.168Z,101348.71
2022-09-14T19:41:59.479Z,101349.48
2022-09-14T19:44:14.108Z,101350.09
2022-09-14T19:46:27.637Z,101355.92
2022-09-14T19:48:41.966Z,101359.13
2022-09-14T19:50:55.969Z,101358.88
2022-09-14T19:53:09.207Z,101359.75
2022-09-14T19:55:22.724Z,101361.31
2022-09-14T19:57:37.791Z,101362.53
2022-09-14T19:59:51.024Z,101362.86
2022-09-14T20:02:04.356Z,101364.46
2022-09-14T20:04:19.538Z,101362.73
2022-09-14T20:06:34.736Z,101362.48
2022-09-14T20:08:48.154Z,101362.73
2022-09-14T20:11:06.395Z,101365.56
2022-09-14T20:13:20.063Z,101365.85
2022-09-14T20:15:34.720Z,101367.17
2022-09-14T20:17:48.010Z,101368.21
2022-09-14T20:20:01.392Z,101367.43
2022-09-14T20:22:16.815Z,101366.95
2022-09-14T20:24:33.551Z,101369.73
2022-09-14T20:26:47.074Z,101367.43
2022-09-14T20:29:02.650Z,101365.77
2022-09-14T20:31:18.017Z,101364.93
2022-09-14T20:33:31.459Z,101361.38
2022-09-14T20:35:46.505Z,101361.89
2022-09-14T20:38:02.746Z,101363.50
2022-09-14T20:40:16.776Z,101361.70
2022-09-14T20:42:30.123Z,101362.56
2022-09-14T20:44:43.400Z,101360.91
2022-09-14T20:46:56.899Z,101355.66
2022-09-14T20:49:11.479Z,101360.34
2022-09-14T20:51:26.215Z,101361.55
2022-09-14T20:53:43.372Z,101356.95
2022-09-14T20:55:56.886Z,101357.95
2022-09-14T20:58:10.149Z,101356.55
2022-09-14T21:00:24.009Z,101357.31
2022-09-14T21:02:38.860Z,101356.67
2022-09-14T21:04:52.343Z,101358.87
2022-09-14T21:07:05.420Z,101358.46
2022-09-14T21:09:19.572Z,101353.06
2022-09-14T21:11:34.437Z,101355.40
2022-09-14T21:13:48.879Z,101356.05
2022-09-14T21:16:02.230Z,101352.56
2022-09-14T21:18:19.973Z,101350.64
2022-09-14T21:20:34.287Z,101348.24
2022-09-14T21:22:50.467Z,101350.64
2022-09-14T21:25:03.747Z,101352.58
2022-09-14T21:27:16.987Z,101354.92
2022-09-14T21:29:30.368Z,101352.58
2022-09-14T21:31:43.934Z,101347.77
2022-09-14T21:34:00.093Z,101346.80
2022-09-14T21:36:16.735Z,101347.38
2022-09-14T21:38:29.971Z,101348.21
2022-09-14T21:40:46.909Z,101347.85
2022-09-14T21:43:00.162Z,101351.35
2022-09-14T21:45:15.821Z,101347.38
2022-09-14T21:47:29.254Z,101351.08
2022-09-14T21:49:42.529Z,101345.95
2022-09-14T21:51:56.056Z,101347.05
2022-09-14T21:54:11.886Z,101346.23
2022-09-14T21:56:28.084Z,101345.24
2022-09-14T21:58:41.401Z,101343.90
2022-09-14T22:01:01.715Z,101342.88
2022-09-14T22:03:15.043Z,101339.80
2022-09-14T22:05:29.184Z,101336.25
2022-09-14T22:07:43.541Z,101334.23
2022-09-14T22:09:57.389Z,101336.48
2022-09-14T22:12:11.205Z,101336.05
2022-09-14T22:14:25.717Z,101336.96
2022-09-14T22:16:40.569Z,101334.15
2022-09-14T22:18:56.358Z,101335.16
2022-09-14T22:21:10.136Z,101334.77
2022-09-14T22:23:23.392Z,101331.67
2022-09-14T22:25:36.606Z,101328.52
2022-09-14T22:27:49.778Z,101324.31
2022-09-14T22:30:03.062Z,101327.17
2022-09-14T22:32:16.744Z,101325.90
2022-09-14T22:34:30.162Z,101321.52
2022-09-14T22:36:43.525Z,101323.59
2022-09-14T22:38:57.937Z,101326.09
2022-09-14T22:41:15.401Z,101327.51
2022-09-14T22:43:29.446Z,101330.50
2022-09-14T22:45:42.667Z,101332.38
2022-09-14T22:47:55.927Z,101330.85
2022-09-14T22:50:09.661Z,101336.78
2022-09-14T22:52:22.885Z,101336.27
2022-09-14T22:54:36.019Z,101332.56
2022-09-14T22:56:49.498Z,101327.98
2022-09-14T22:59:03.061Z,101332.98
2022-09-14T23:01:17.938Z,101335.15
2022-09-14T23:03:31.708Z,101335.39
2022-09-14T23:05:51.853Z,101336.69
2022-09-14T23:08:05.992Z,101335.56
2022-09-14T23:10:19.922Z,101338.96
2022-09-14T23:12:33.299Z,101343.64
2022-09-14T23:14:46.468Z,101340.96
2022-09-14T23:16:59.789Z,101342.79
2022-09-14T23:19:17.084Z,101340.63
2022-09-14T23:21:31.228Z,101342.80
2022-09-14T23:23:44.503Z,101338.50
2022-09-14T23:25:57.929Z,101345.05
2022-09-14T23:28:14.465Z,101343.38
2022-09-14T23:30:27.784Z,101341.33
2022-09-14T23:32:41.036Z,101337.13
2022-09-14T23:34:54.496Z,101336.25
2022-09-14T23:37:07.714Z,101336.09
2022-09-14T23:39:21.035Z,101335.66
2022-09-14T23:41:34.648Z,101335.63
2022-09-14T23:43:48.102Z,101339.45
2022-09-14T23:46:01.585Z,101336.70
2022-09-14T23:48:15.949Z,101338.31
2022-09-14T23:50:29.722Z,101334.34
2022-09-14T23:52:43.383Z,101338.63
2022-09-14T23:54:57.347Z,101338.48
2022-09-14T23:57:10.755Z,101340.91
2022-09-14T23:59:23.954Z,101340.64
